createdAt,value
2019-03-29T00:02:18.095Z,9.37
2019-03-29T00:07:20.357Z,8.47
2019-03-29T00:12:22.937Z,9.27
2019-03-29T00:17:25.210Z,8.83
2019-03-29T00:22:27.487Z,9.20
2019-03-29T00:27:29.790Z,9.17
2019-03-29T00:32:32.720Z,10.43
2019-03-29T00:37:35.000Z,9.20
2019-03-29T00:42:37.297Z,8.80
2019-03-29T00:47:39.581Z,10.07
2019-03-29T00:52:43.000Z,9.63
2019-03-29T00:57:45.339Z,9.90
2019-03-29T01:02:47.636Z,10.93
2019-03-29T01:07:49.933Z,10.50
2019-03-29T01:12:52.566Z,10.70
2019-03-29T01:17:54.843Z,9.47
2019-03-29T01:22:57.297Z,9.67
2019-03-29T01:28:00.178Z,10.10
2019-03-29T01:33:02.481Z,9.57
2019-03-29T01:38:04.783Z,13.73
2019-03-29T01:43:07.803Z,10.33
2019-03-29T01:48:10.188Z,9.57
2019-03-29T01:53:12.470Z,10.23
2019-03-29T01:58:15.057Z,10.28
2019-03-29T02:03:17.355Z,10.20
2019-03-29T02:08:19.643Z,11.27
2019-03-29T02:13:22.203Z,10.87
2019-03-29T02:18:24.456Z,12.57
2019-03-29T02:23:26.856Z,12.60
2019-03-29T02:28:29.195Z,10.90
2019-03-29T02:33:31.501Z,11.00
2019-03-29T02:38:34.011Z,10.07
2019-03-29T02:43:36.314Z,10.23
2019-03-29T02:48:38.608Z,9.67
2019-03-29T02:53:40.896Z,10.87
2019-03-29T02:58:43.184Z,10.83
2019-03-29T03:03:45.477Z,10.13
2019-03-29T03:08:47.768Z,10.37
2019-03-29T03:13:50.097Z,10.57
2019-03-29T03:18:52.361Z,10.72
2019-03-29T03:23:54.667Z,9.97
2019-03-29T03:28:56.991Z,11.33
2019-03-29T03:33:59.323Z,9.70
2019-03-29T03:39:01.623Z,10.37
2019-03-29T03:44:03.979Z,9.93
2019-03-29T03:49:07.223Z,10.23
2019-03-29T03:54:09.782Z,10.10
2019-03-29T03:59:12.088Z,9.20
2019-03-29T04:04:14.413Z,10.23
2019-03-29T04:09:17.047Z,10.57
2019-03-29T04:14:19.391Z,9.83
2019-03-29T04:19:21.697Z,11.40
2019-03-29T04:24:23.933Z,10.67
2019-03-29T04:29:26.508Z,11.63
2019-03-29T04:34:29.550Z,10.33
2019-03-29T04:39:31.798Z,9.93
2019-03-29T04:44:34.096Z,10.03
2019-03-29T04:49:36.376Z,10.27
2019-03-29T04:54:38.661Z,10.40
2019-03-29T04:59:40.913Z,10.67
2019-03-29T05:04:43.249Z,13.10
2019-03-29T05:09:45.528Z,11.10
2019-03-29T05:14:47.795Z,11.90
2019-03-29T05:19:50.086Z,11.87
2019-03-29T05:24:52.755Z,11.30
2019-03-29T05:29:55.100Z,11.28
2019-03-29T05:34:57.377Z,11.23
2019-03-29T05:39:59.778Z,10.77
2019-03-29T05:45:02.796Z,11.30
2019-03-29T05:50:06.052Z,12.57
2019-03-29T05:55:08.423Z,12.17
2019-03-29T06:00:12.541Z,12.67
2019-03-29T06:05:14.831Z,12.47
2019-03-29T06:10:17.296Z,13.50
2019-03-29T06:15:19.590Z,12.80
2019-03-29T06:20:21.881Z,13.53
2019-03-29T06:25:24.310Z,14.07
2019-03-29T06:30:29.638Z,13.90
2019-03-29T06:35:33.496Z,13.57
2019-03-29T06:40:35.791Z,13.23
2019-03-29T06:45:47.705Z,13.60
2019-03-29T06:50:42.247Z,14.07
2019-03-29T06:55:44.638Z,14.85
2019-03-29T07:00:46.913Z,15.53
2019-03-29T07:05:49.262Z,15.88
2019-03-29T07:10:51.567Z,16.10
2019-03-29T07:15:54.224Z,16.70
2019-03-29T07:20:56.522Z,13.80
2019-03-29T07:25:58.836Z,14.30
2019-03-29T07:31:01.191Z,14.05
2019-03-29T07:36:03.487Z,14.15
2019-03-29T07:41:05.763Z,13.43
2019-03-29T07:46:08.041Z,13.70
2019-03-29T07:51:10.343Z,13.10
2019-03-29T07:56:12.820Z,13.00
2019-03-29T08:01:15.444Z,13.05
2019-03-29T08:06:17.757Z,12.90
2019-03-29T08:11:25.888Z,12.43
2019-03-29T08:16:24.677Z,13.10
2019-03-29T08:21:27.037Z,13.50
2019-03-29T08:26:29.310Z,12.03
2019-03-29T08:31:31.853Z,11.65
2019-03-29T08:36:34.158Z,11.83
2019-03-29T08:41:36.470Z,12.35
2019-03-29T08:46:38.793Z,11.57
2019-03-29T08:51:41.579Z,12.20
2019-03-29T08:56:44.019Z,12.15
2019-03-29T09:01:46.280Z,11.03
2019-03-29T09:06:53.828Z,10.95
2019-03-29T09:11:52.693Z,10.65
2019-03-29T09:16:54.981Z,10.72
2019-03-29T09:21:57.247Z,10.76
2019-03-29T09:26:59.519Z,10.60
2019-03-29T09:32:01.797Z,10.25
2019-03-29T09:37:04.107Z,10.25
2019-03-29T09:42:09.389Z,10.05
2019-03-29T09:47:10.512Z,9.80
2019-03-29T09:52:12.802Z,10.80
2019-03-29T09:57:15.748Z,9.75
2019-03-29T10:02:18.163Z,10.50
2019-03-29T10:07:20.539Z,9.38
2019-03-29T10:12:22.813Z,9.68
2019-03-29T10:17:25.117Z,9.05
2019-03-29T10:22:27.474Z,8.13
2019-03-29T10:27:29.982Z,8.28
2019-03-29T10:32:32.277Z,9.13
2019-03-29T10:37:34.688Z,10.18
2019-03-29T10:42:39.805Z,9.50
2019-03-29T10:47:43.972Z,9.13
2019-03-29T10:52:45.027Z,9.23
2019-03-29T10:57:47.316Z,10.00
2019-03-29T11:02:49.663Z,9.73
2019-03-29T11:07:52.118Z,7.62
2019-03-29T11:12:54.416Z,7.90
2019-03-29T11:17:57.012Z,8.15
2019-03-29T11:22:59.306Z,8.40
2019-03-29T11:28:01.663Z,9.20
2019-03-29T11:33:04.047Z,8.63
2019-03-29T11:38:06.385Z,9.80
2019-03-29T11:43:10.848Z,9.90
2019-03-29T11:48:12.758Z,9.70
2019-03-29T11:53:15.058Z,11.08
2019-03-29T11:58:17.456Z,10.13
2019-03-29T12:03:19.827Z,9.78
2019-03-29T12:08:22.186Z,9.40
2019-03-29T12:13:24.555Z,8.63
2019-03-29T12:18:26.853Z,8.88
2019-03-29T12:23:29.273Z,8.30
2019-03-29T12:28:31.692Z,9.35
2019-03-29T12:33:34.095Z,8.50
2019-03-29T12:38:37.448Z,7.97
2019-03-29T12:43:39.833Z,7.80
2019-03-29T12:48:42.178Z,7.92
2019-03-29T12:53:44.554Z,7.05
2019-03-29T12:58:46.884Z,8.50
2019-03-29T13:03:49.270Z,7.17
2019-03-29T13:08:51.645Z,7.30
2019-03-29T13:13:54.051Z,6.50
2019-03-29T13:18:56.396Z,7.65
2019-03-29T13:23:58.663Z,7.33
2019-03-29T13:29:01.345Z,7.75
2019-03-29T13:34:03.782Z,7.47
2019-03-29T13:39:07.191Z,7.33
2019-03-29T13:44:22.948Z,7.50
2019-03-29T13:49:13.482Z,6.90
2019-03-29T13:54:15.866Z,6.67
2019-03-29T13:59:18.140Z,7.10
2019-03-29T14:04:20.436Z,6.20
2019-03-29T14:09:22.809Z,6.90
2019-03-29T14:14:37.646Z,7.67
2019-03-29T14:19:29.203Z,7.30
2019-03-29T14:24:31.609Z,7.00
2019-03-29T14:29:33.885Z,6.03
2019-03-29T14:34:36.176Z,5.85
2019-03-29T14:39:38.480Z,6.35
2019-03-29T14:44:51.653Z,6.05
2019-03-29T14:49:44.932Z,5.87
2019-03-29T14:54:47.215Z,5.25
2019-03-29T14:59:49.616Z,6.60
2019-03-29T15:04:52.252Z,5.33
2019-03-29T15:09:55.156Z,5.25
2019-03-29T15:15:06.137Z,5.60
2019-03-29T15:20:01.993Z,5.50
2019-03-29T15:25:05.060Z,6.38
2019-03-29T15:30:07.422Z,5.67
2019-03-29T15:35:09.871Z,4.42
2019-03-29T15:40:12.341Z,7.33
2019-03-29T15:45:20.807Z,5.25
2019-03-29T15:50:18.752Z,5.35
2019-03-29T15:55:21.016Z,5.42
2019-03-29T16:00:23.393Z,5.10
2019-03-29T16:05:25.932Z,5.45
2019-03-29T16:10:28.278Z,5.85
2019-03-29T16:15:36.453Z,5.20
2019-03-29T16:20:35.557Z,6.15
2019-03-29T16:25:37.850Z,5.92
2019-03-29T16:30:40.233Z,10.10
2019-03-29T16:35:42.556Z,7.80
2019-03-29T16:40:44.847Z,6.05
2019-03-29T16:45:48.413Z,5.85
2019-03-29T16:50:50.877Z,5.28
2019-03-29T16:55:53.290Z,5.50
2019-03-29T17:00:55.601Z,5.10
2019-03-29T17:05:57.977Z,5.30
2019-03-29T17:11:00.292Z,5.55
2019-03-29T17:16:02.610Z,4.70
2019-03-29T17:21:05.054Z,5.30
2019-03-29T17:26:07.517Z,5.57
2019-03-29T17:31:11.438Z,5.83
2019-03-29T17:36:13.786Z,5.60
2019-03-29T17:41:16.057Z,5.20
2019-03-29T17:46:18.399Z,5.50
2019-03-29T17:51:20.767Z,5.58
2019-03-29T17:56:23.091Z,5.00
2019-03-29T18:01:25.514Z,5.08
2019-03-29T18:06:27.968Z,4.92
2019-03-29T18:11:30.332Z,5.47
2019-03-29T18:16:32.686Z,5.50
2019-03-29T18:21:35.213Z,5.63
2019-03-29T18:26:37.731Z,6.03
2019-03-29T18:31:40.361Z,5.75
2019-03-29T18:36:43.628Z,6.25
2019-03-29T18:41:45.931Z,5.97
2019-03-29T18:46:48.250Z,5.85
2019-03-29T18:51:50.558Z,5.22
2019-03-29T18:56:52.917Z,5.46
2019-03-29T19:01:55.240Z,5.03
2019-03-29T19:06:57.632Z,6.57
2019-03-29T19:11:59.947Z,6.60
2019-03-29T19:17:02.373Z,6.50
2019-03-29T19:22:04.698Z,10.30
2019-03-29T19:27:07.079Z,13.03
2019-03-29T19:32:09.457Z,11.90
2019-03-29T19:37:11.824Z,13.07
2019-03-29T19:42:16.757Z,11.87
2019-03-29T19:47:18.226Z,12.93
2019-03-29T19:52:20.665Z,10.70
2019-03-29T19:57:23.026Z,11.73
2019-03-29T20:02:25.514Z,10.80
2019-03-29T20:07:29.900Z,11.83
2019-03-29T20:12:32.217Z,12.37
2019-03-29T20:17:34.592Z,11.70
2019-03-29T20:22:36.894Z,12.47
2019-03-29T20:27:39.241Z,12.37
2019-03-29T20:32:41.568Z,12.70
2019-03-29T20:37:43.944Z,11.57
2019-03-29T20:42:46.374Z,12.53
2019-03-29T20:47:51.845Z,12.43
2019-03-29T20:52:52.840Z,13.90
2019-03-29T20:57:55.160Z,14.50
2019-03-29T21:02:57.914Z,12.20
2019-03-29T21:08:00.291Z,13.40
2019-03-29T21:13:02.674Z,12.40
2019-03-29T21:18:05.235Z,12.87
2019-03-29T21:23:07.690Z,12.80
2019-03-29T21:28:10.852Z,11.63
2019-03-29T21:33:13.307Z,11.90
2019-03-29T21:38:15.795Z,11.00
2019-03-29T21:43:18.123Z,12.20
2019-03-29T21:48:28.516Z,12.43
2019-03-29T21:53:24.648Z,12.33
2019-03-29T21:58:27.145Z,13.47
2019-03-29T22:03:29.698Z,12.93
2019-03-29T22:08:32.056Z,15.93
2019-03-29T22:13:34.366Z,14.70
2019-03-29T22:18:38.214Z,16.13
2019-03-29T22:23:40.767Z,19.67
2019-03-29T22:28:43.117Z,15.97
2019-03-29T22:33:45.638Z,17.97
2019-03-29T22:38:47.941Z,14.97
2019-03-29T22:43:50.256Z,14.73
2019-03-29T22:48:53.509Z,14.20
2019-03-29T22:53:55.942Z,16.53
2019-03-29T22:58:58.241Z,14.77
2019-03-29T23:04:03.496Z,14.60
2019-03-29T23:09:06.217Z,14.10
2019-03-29T23:14:08.499Z,13.37
2019-03-29T23:19:10.809Z,15.90
2019-03-29T23:24:13.097Z,16.47
2019-03-29T23:29:15.377Z,14.83
2019-03-29T23:34:17.710Z,13.70
2019-03-29T23:39:20.068Z,13.73
2019-03-29T23:44:22.342Z,14.37
2019-03-29T23:49:24.656Z,14.00
2019-03-29T23:54:26.907Z,13.47
2019-03-29T23:59:29.246Z,13.80
